sensor_id;sensor_type;location;lat;lon;timestamp;P1;durP1;ratioP1;P2;durP2;ratioP2
21581;SDS011;10952;50.836;4.348;2022-07-23T00:00:19;19.83;;;12.97;;
21581;SDS011;10952;50.836;4.348;2022-07-23T00:02:45;20.80;;;15.07;;
21581;SDS011;10952;50.836;4.348;2022-07-23T00:05:10;21.97;;;14.07;;
21581;SDS011;10952;50.836;4.348;2022-07-23T00:07:37;20.03;;;14.93;;
21581;SDS011;10952;50.836;4.348;2022-07-23T00:10:03;22.73;;;14.90;;
21581;SDS011;10952;50.836;4.348;2022-07-23T00:12:29;24.17;;;14.10;;
21581;SDS011;10952;50.836;4.348;2022-07-23T00:14:54;21.77;;;15.87;;
21581;SDS011;10952;50.836;4.348;2022-07-23T00:17:21;22.47;;;14.53;;
21581;SDS011;10952;50.836;4.348;2022-07-23T00:19:47;17.87;;;14.23;;
21581;SDS011;10952;50.836;4.348;2022-07-23T00:22:12;20.57;;;15.00;;
21581;SDS011;10952;50.836;4.348;2022-07-23T00:24:38;23.87;;;15.77;;
21581;SDS011;10952;50.836;4.348;2022-07-23T00:27:04;21.50;;;15.33;;
21581;SDS011;10952;50.836;4.348;2022-07-23T00:29:32;22.30;;;15.47;;
21581;SDS011;10952;50.836;4.348;2022-07-23T00:31:57;22.10;;;15.30;;
21581;SDS011;10952;50.836;4.348;2022-07-23T00:34:23;18.70;;;14.50;;
21581;SDS011;10952;50.836;4.348;2022-07-23T00:36:48;19.63;;;14.20;;
21581;SDS011;10952;50.836;4.348;2022-07-23T00:39:14;23.03;;;14.40;;
21581;SDS011;10952;50.836;4.348;2022-07-23T00:41:40;21.93;;;15.60;;
21581;SDS011;10952;50.836;4.348;2022-07-23T00:47:00;24.57;;;15.87;;
21581;SDS011;10952;50.836;4.348;2022-07-23T00:49:27;21.63;;;15.33;;
21581;SDS011;10952;50.836;4.348;2022-07-23T00:51:54;21.20;;;15.13;;
21581;SDS011;10952;50.836;4.348;2022-07-23T00:54:22;24.20;;;14.77;;
21581;SDS011;10952;50.836;4.348;2022-07-23T00:56:49;25.40;;;16.27;;
21581;SDS011;10952;50.836;4.348;2022-07-23T00:59:14;23.27;;;15.90;;
21581;SDS011;10952;50.836;4.348;2022-07-23T01:01:41;23.57;;;16.57;;
21581;SDS011;10952;50.836;4.348;2022-07-23T01:04:09;19.83;;;14.33;;
21581;SDS011;10952;50.836;4.348;2022-07-23T01:06:37;22.03;;;14.77;;
21581;SDS011;10952;50.836;4.348;2022-07-23T01:09:09;18.67;;;14.50;;
21581;SDS011;10952;50.836;4.348;2022-07-23T01:11:36;24.67;;;16.47;;
21581;SDS011;10952;50.836;4.348;2022-07-23T01:14:12;21.23;;;15.50;;
21581;SDS011;10952;50.836;4.348;2022-07-23T01:16:40;20.70;;;15.57;;
21581;SDS011;10952;50.836;4.348;2022-07-23T01:19:06;22.80;;;15.30;;
21581;SDS011;10952;50.836;4.348;2022-07-23T01:21:37;20.60;;;15.60;;
21581;SDS011;10952;50.836;4.348;2022-07-23T01:24:08;22.87;;;16.13;;
21581;SDS011;10952;50.836;4.348;2022-07-23T01:26:35;22.77;;;16.30;;
21581;SDS011;10952;50.836;4.348;2022-07-23T01:29:02;23.83;;;16.13;;
21581;SDS011;10952;50.836;4.348;2022-07-23T01:31:30;22.67;;;15.27;;
21581;SDS011;10952;50.836;4.348;2022-07-23T01:33:56;29.00;;;16.80;;
21581;SDS011;10952;50.836;4.348;2022-07-23T01:36:22;24.50;;;16.43;;
21581;SDS011;10952;50.836;4.348;2022-07-23T01:38:49;23.87;;;16.17;;
21581;SDS011;10952;50.836;4.348;2022-07-23T01:41:15;20.33;;;15.40;;
21581;SDS011;10952;50.836;4.348;2022-07-23T01:43:42;21.20;;;15.50;;
21581;SDS011;10952;50.836;4.348;2022-07-23T01:46:08;27.17;;;16.03;;
21581;SDS011;10952;50.836;4.348;2022-07-23T01:48:34;25.37;;;15.90;;
21581;SDS011;10952;50.836;4.348;2022-07-23T01:51:00;22.13;;;14.87;;
21581;SDS011;10952;50.836;4.348;2022-07-23T01:53:26;21.50;;;15.77;;
21581;SDS011;10952;50.836;4.348;2022-07-23T01:55:52;24.93;;;16.83;;
21581;SDS011;10952;50.836;4.348;2022-07-23T01:58:17;21.67;;;15.53;;
21581;SDS011;10952;50.836;4.348;2022-07-23T02:00:43;23.70;;;16.37;;
21581;SDS011;10952;50.836;4.348;2022-07-23T02:03:08;23.57;;;16.10;;
21581;SDS011;10952;50.836;4.348;2022-07-23T02:05:34;21.77;;;14.53;;
21581;SDS011;10952;50.836;4.348;2022-07-23T02:08:00;22.77;;;15.53;;
21581;SDS011;10952;50.836;4.348;2022-07-23T02:10:27;19.73;;;14.67;;
21581;SDS011;10952;50.836;4.348;2022-07-23T02:12:53;22.47;;;15.43;;
21581;SDS011;10952;50.836;4.348;2022-07-23T02:15:19;24.83;;;15.53;;
21581;SDS011;10952;50.836;4.348;2022-07-23T02:17:45;26.73;;;15.00;;
21581;SDS011;10952;50.836;4.348;2022-07-23T02:20:11;23.00;;;15.17;;
21581;SDS011;10952;50.836;4.348;2022-07-23T02:22:38;22.33;;;14.87;;
21581;SDS011;10952;50.836;4.348;2022-07-23T02:25:05;21.40;;;15.50;;
21581;SDS011;10952;50.836;4.348;2022-07-23T02:27:31;23.30;;;14.97;;
21581;SDS011;10952;50.836;4.348;2022-07-23T02:29:57;24.80;;;15.73;;
21581;SDS011;10952;50.836;4.348;2022-07-23T02:32:23;24.37;;;14.50;;
21581;SDS011;10952;50.836;4.348;2022-07-23T02:34:49;20.53;;;15.83;;
21581;SDS011;10952;50.836;4.348;2022-07-23T02:37:15;22.00;;;15.27;;
21581;SDS011;10952;50.836;4.348;2022-07-23T02:39:41;21.77;;;15.30;;
21581;SDS011;10952;50.836;4.348;2022-07-23T02:42:06;24.77;;;14.73;;
21581;SDS011;10952;50.836;4.348;2022-07-23T02:44:32;22.77;;;14.60;;
21581;SDS011;10952;50.836;4.348;2022-07-23T02:46:58;19.43;;;14.63;;
21581;SDS011;10952;50.836;4.348;2022-07-23T02:49:23;24.90;;;15.27;;
21581;SDS011;10952;50.836;4.348;2022-07-23T02:51:49;23.50;;;15.63;;
21581;SDS011;10952;50.836;4.348;2022-07-23T02:54:14;23.10;;;15.73;;
21581;SDS011;10952;50.836;4.348;2022-07-23T02:56:40;22.07;;;15.63;;
21581;SDS011;10952;50.836;4.348;2022-07-23T02:59:06;24.87;;;14.90;;
21581;SDS011;10952;50.836;4.348;2022-07-23T03:01:32;24.97;;;15.60;;
21581;SDS011;10952;50.836;4.348;2022-07-23T03:03:57;21.27;;;15.20;;
21581;SDS011;10952;50.836;4.348;2022-07-23T03:06:23;20.07;;;15.33;;
21581;SDS011;10952;50.836;4.348;2022-07-23T03:08:49;21.27;;;15.53;;
21581;SDS011;10952;50.836;4.348;2022-07-23T03:11:15;23.20;;;15.83;;
21581;SDS011;10952;50.836;4.348;2022-07-23T03:13:41;21.70;;;15.50;;
21581;SDS011;10952;50.836;4.348;2022-07-23T03:16:07;24.57;;;16.70;;
21581;SDS011;10952;50.836;4.348;2022-07-23T03:18:33;24.37;;;16.50;;
21581;SDS011;10952;50.836;4.348;2022-07-23T03:20:59;25.50;;;16.80;;
21581;SDS011;10952;50.836;4.348;2022-07-23T03:23:25;23.93;;;15.73;;
21581;SDS011;10952;50.836;4.348;2022-07-23T03:25:51;24.57;;;16.50;;
21581;SDS011;10952;50.836;4.348;2022-07-23T03:28:17;24.07;;;16.50;;
21581;SDS011;10952;50.836;4.348;2022-07-23T03:30:44;25.70;;;16.60;;
21581;SDS011;10952;50.836;4.348;2022-07-23T03:33:17;22.93;;;16.50;;
21581;SDS011;10952;50.836;4.348;2022-07-23T03:35:44;21.57;;;16.23;;
21581;SDS011;10952;50.836;4.348;2022-07-23T03:38:12;21.93;;;15.20;;
21581;SDS011;10952;50.836;4.348;2022-07-23T03:40:40;24.57;;;16.03;;
21581;SDS011;10952;50.836;4.348;2022-07-23T03:43:07;25.37;;;16.37;;
21581;SDS011;10952;50.836;4.348;2022-07-23T03:45:35;23.73;;;15.77;;
21581;SDS011;10952;50.836;4.348;2022-07-23T03:48:00;25.80;;;16.53;;
21581;SDS011;10952;50.836;4.348;2022-07-23T03:50:28;22.67;;;15.50;;
21581;SDS011;10952;50.836;4.348;2022-07-23T03:52:54;21.77;;;15.37;;
21581;SDS011;10952;50.836;4.348;2022-07-23T03:57:48;22.37;;;16.27;;
21581;SDS011;10952;50.836;4.348;2022-07-23T04:00:15;20.57;;;14.73;;
21581;SDS011;10952;50.836;4.348;2022-07-23T04:02:42;24.93;;;16.60;;
21581;SDS011;10952;50.836;4.348;2022-07-23T04:05:08;23.80;;;15.70;;
21581;SDS011;10952;50.836;4.348;2022-07-23T04:07:34;23.60;;;16.50;;
21581;SDS011;10952;50.836;4.348;2022-07-23T04:10:03;24.67;;;16.13;;
21581;SDS011;10952;50.836;4.348;2022-07-23T04:12:29;22.40;;;15.57;;
21581;SDS011;10952;50.836;4.348;2022-07-23T04:14:55;22.77;;;16.43;;
21581;SDS011;10952;50.836;4.348;2022-07-23T04:17:22;28.50;;;14.97;;
21581;SDS011;10952;50.836;4.348;2022-07-23T04:19:56;21.33;;;14.63;;
21581;SDS011;10952;50.836;4.348;2022-07-23T04:22:23;23.50;;;15.30;;
21581;SDS011;10952;50.836;4.348;2022-07-23T04:24:49;24.93;;;15.40;;
21581;SDS011;10952;50.836;4.348;2022-07-23T04:27:15;20.07;;;14.87;;
21581;SDS011;10952;50.836;4.348;2022-07-23T04:29:41;22.67;;;15.53;;
21581;SDS011;10952;50.836;4.348;2022-07-23T04:32:06;22.47;;;15.53;;
21581;SDS011;10952;50.836;4.348;2022-07-23T04:34:34;21.67;;;14.70;;
21581;SDS011;10952;50.836;4.348;2022-07-23T04:37:02;19.77;;;14.67;;
21581;SDS011;10952;50.836;4.348;2022-07-23T04:39:27;26.63;;;18.00;;
21581;SDS011;10952;50.836;4.348;2022-07-23T04:41:54;21.20;;;15.57;;
21581;SDS011;10952;50.836;4.348;2022-07-23T04:44:21;26.43;;;14.80;;
21581;SDS011;10952;50.836;4.348;2022-07-23T04:46:46;21.33;;;15.07;;
21581;SDS011;10952;50.836;4.348;2022-07-23T04:49:12;18.97;;;14.53;;
21581;SDS011;10952;50.836;4.348;2022-07-23T04:51:38;23.23;;;14.20;;
21581;SDS011;10952;50.836;4.348;2022-07-23T04:54:04;20.13;;;13.67;;
21581;SDS011;10952;50.836;4.348;2022-07-23T04:56:30;20.70;;;13.70;;
21581;SDS011;10952;50.836;4.348;2022-07-23T04:58:56;25.10;;;14.37;;
21581;SDS011;10952;50.836;4.348;2022-07-23T05:01:22;21.00;;;12.97;;
21581;SDS011;10952;50.836;4.348;2022-07-23T05:03:48;19.27;;;13.50;;
21581;SDS011;10952;50.836;4.348;2022-07-23T05:06:17;21.60;;;13.37;;
21581;SDS011;10952;50.836;4.348;2022-07-23T05:11:11;18.27;;;12.63;;
21581;SDS011;10952;50.836;4.348;2022-07-23T05:13:37;17.50;;;12.37;;
21581;SDS011;10952;50.836;4.348;2022-07-23T05:16:03;20.57;;;13.00;;
21581;SDS011;10952;50.836;4.348;2022-07-23T05:18:29;20.67;;;13.57;;
21581;SDS011;10952;50.836;4.348;2022-07-23T05:20:55;18.57;;;13.13;;
21581;SDS011;10952;50.836;4.348;2022-07-23T05:23:20;22.27;;;14.03;;
21581;SDS011;10952;50.836;4.348;2022-07-23T05:25:47;22.00;;;13.40;;
21581;SDS011;10952;50.836;4.348;2022-07-23T05:28:13;18.03;;;12.07;;
21581;SDS011;10952;50.836;4.348;2022-07-23T05:30:39;19.17;;;13.63;;
21581;SDS011;10952;50.836;4.348;2022-07-23T05:33:05;22.20;;;13.27;;
21581;SDS011;10952;50.836;4.348;2022-07-23T05:35:32;19.70;;;13.13;;
21581;SDS011;10952;50.836;4.348;2022-07-23T05:37:58;18.60;;;13.80;;
21581;SDS011;10952;50.836;4.348;2022-07-23T05:40:24;21.63;;;13.83;;
21581;SDS011;10952;50.836;4.348;2022-07-23T05:42:49;18.93;;;14.03;;
21581;SDS011;10952;50.836;4.348;2022-07-23T05:45:15;20.93;;;13.40;;
21581;SDS011;10952;50.836;4.348;2022-07-23T05:47:44;23.40;;;14.37;;
21581;SDS011;10952;50.836;4.348;2022-07-23T05:50:12;22.00;;;13.97;;
21581;SDS011;10952;50.836;4.348;2022-07-23T05:52:39;19.83;;;13.87;;
21581;SDS011;10952;50.836;4.348;2022-07-23T05:55:05;18.97;;;14.57;;
21581;SDS011;10952;50.836;4.348;2022-07-23T05:57:31;20.37;;;14.00;;
21581;SDS011;10952;50.836;4.348;2022-07-23T05:59:57;23.63;;;14.77;;
21581;SDS011;10952;50.836;4.348;2022-07-23T06:04:53;18.47;;;13.17;;
21581;SDS011;10952;50.836;4.348;2022-07-23T06:07:19;24.70;;;16.73;;
21581;SDS011;10952;50.836;4.348;2022-07-23T06:09:46;22.00;;;14.17;;
21581;SDS011;10952;50.836;4.348;2022-07-23T06:12:13;26.17;;;16.57;;
21581;SDS011;10952;50.836;4.348;2022-07-23T06:14:39;23.80;;;14.53;;
21581;SDS011;10952;50.836;4.348;2022-07-23T06:17:06;22.27;;;14.23;;
21581;SDS011;10952;50.836;4.348;2022-07-23T06:19:38;23.73;;;14.47;;
21581;SDS011;10952;50.836;4.348;2022-07-23T06:22:04;19.10;;;14.20;;
21581;SDS011;10952;50.836;4.348;2022-07-23T06:24:30;20.50;;;14.03;;
21581;SDS011;10952;50.836;4.348;2022-07-23T06:26:55;19.83;;;13.67;;
21581;SDS011;10952;50.836;4.348;2022-07-23T06:29:21;20.47;;;14.17;;
21581;SDS011;10952;50.836;4.348;2022-07-23T06:31:48;17.70;;;13.20;;
21581;SDS011;10952;50.836;4.348;2022-07-23T06:34:13;23.63;;;13.97;;
21581;SDS011;10952;50.836;4.348;2022-07-23T06:36:40;19.47;;;13.63;;
21581;SDS011;10952;50.836;4.348;2022-07-23T06:39:06;19.93;;;14.17;;
21581;SDS011;10952;50.836;4.348;2022-07-23T06:41:32;18.33;;;13.30;;
21581;SDS011;10952;50.836;4.348;2022-07-23T06:44:00;18.53;;;12.83;;
21581;SDS011;10952;50.836;4.348;2022-07-23T06:46:26;19.77;;;11.90;;
21581;SDS011;10952;50.836;4.348;2022-07-23T06:48:52;20.90;;;11.70;;
21581;SDS011;10952;50.836;4.348;2022-07-23T06:51:19;17.23;;;12.43;;
21581;SDS011;10952;50.836;4.348;2022-07-23T06:53:46;21.43;;;12.43;;
21581;SDS011;10952;50.836;4.348;2022-07-23T06:58:42;19.43;;;13.50;;
21581;SDS011;10952;50.836;4.348;2022-07-23T07:01:08;18.20;;;13.53;;
21581;SDS011;10952;50.836;4.348;2022-07-23T07:03:34;18.17;;;12.63;;
21581;SDS011;10952;50.836;4.348;2022-07-23T07:06:00;23.33;;;12.50;;
21581;SDS011;10952;50.836;4.348;2022-07-23T07:08:27;22.40;;;13.67;;
21581;SDS011;10952;50.836;4.348;2022-07-23T07:10:52;19.23;;;12.20;;
21581;SDS011;10952;50.836;4.348;2022-07-23T07:13:19;16.20;;;11.40;;
21581;SDS011;10952;50.836;4.348;2022-07-23T07:15:45;23.33;;;12.73;;
21581;SDS011;10952;50.836;4.348;2022-07-23T07:18:13;19.00;;;12.70;;
21581;SDS011;10952;50.836;4.348;2022-07-23T07:20:38;32.30;;;14.67;;
21581;SDS011;10952;50.836;4.348;2022-07-23T07:23:04;26.00;;;13.23;;
21581;SDS011;10952;50.836;4.348;2022-07-23T07:25:31;18.30;;;12.47;;
21581;SDS011;10952;50.836;4.348;2022-07-23T07:27:57;21.60;;;11.90;;
21581;SDS011;10952;50.836;4.348;2022-07-23T07:30:25;17.23;;;12.80;;
21581;SDS011;10952;50.836;4.348;2022-07-23T07:32:54;20.47;;;11.67;;
21581;SDS011;10952;50.836;4.348;2022-07-23T07:35:20;19.43;;;12.90;;
21581;SDS011;10952;50.836;4.348;2022-07-23T07:37:47;22.50;;;12.80;;
21581;SDS011;10952;50.836;4.348;2022-07-23T07:40:13;20.10;;;13.97;;
21581;SDS011;10952;50.836;4.348;2022-07-23T07:42:51;25.73;;;13.03;;
21581;SDS011;10952;50.836;4.348;2022-07-23T07:45:21;21.37;;;11.57;;
21581;SDS011;10952;50.836;4.348;2022-07-23T07:50:17;17.83;;;11.20;;
21581;SDS011;10952;50.836;4.348;2022-07-23T07:55:14;20.27;;;10.80;;
21581;SDS011;10952;50.836;4.348;2022-07-23T07:57:39;17.93;;;11.77;;
21581;SDS011;10952;50.836;4.348;2022-07-23T08:00:08;17.53;;;11.60;;
21581;SDS011;10952;50.836;4.348;2022-07-23T08:02:44;15.20;;;10.77;;
21581;SDS011;10952;50.836;4.348;2022-07-23T08:05:13;14.73;;;10.80;;
21581;SDS011;10952;50.836;4.348;2022-07-23T08:07:39;16.77;;;11.10;;
21581;SDS011;10952;50.836;4.348;2022-07-23T08:10:07;15.60;;;11.33;;
21581;SDS011;10952;50.836;4.348;2022-07-23T08:15:10;18.97;;;11.17;;
21581;SDS011;10952;50.836;4.348;2022-07-23T08:17:37;21.57;;;10.70;;
21581;SDS011;10952;50.836;4.348;2022-07-23T08:20:05;18.70;;;11.00;;
21581;SDS011;10952;50.836;4.348;2022-07-23T08:25:34;16.00;;;11.73;;
21581;SDS011;10952;50.836;4.348;2022-07-23T08:28:03;12.67;;;10.23;;
21581;SDS011;10952;50.836;4.348;2022-07-23T08:30:30;15.53;;;11.80;;
21581;SDS011;10952;50.836;4.348;2022-07-23T08:32:58;22.10;;;11.87;;
21581;SDS011;10952;50.836;4.348;2022-07-23T08:35:28;26.77;;;11.10;;
21581;SDS011;10952;50.836;4.348;2022-07-23T08:38:02;15.50;;;10.23;;
21581;SDS011;10952;50.836;4.348;2022-07-23T08:40:34;13.50;;;10.30;;
21581;SDS011;10952;50.836;4.348;2022-07-23T08:43:04;14.50;;;10.33;;
21581;SDS011;10952;50.836;4.348;2022-07-23T08:45:35;15.50;;;9.93;;
21581;SDS011;10952;50.836;4.348;2022-07-23T08:48:03;18.33;;;9.77;;
21581;SDS011;10952;50.836;4.348;2022-07-23T08:50:30;19.80;;;10.53;;
21581;SDS011;10952;50.836;4.348;2022-07-23T08:52:57;17.43;;;9.87;;
21581;SDS011;10952;50.836;4.348;2022-07-23T08:55:25;18.40;;;10.40;;
21581;SDS011;10952;50.836;4.348;2022-07-23T08:57:51;15.53;;;10.60;;
21581;SDS011;10952;50.836;4.348;2022-07-23T09:00:18;13.77;;;9.43;;
21581;SDS011;10952;50.836;4.348;2022-07-23T09:02:46;13.73;;;9.67;;
21581;SDS011;10952;50.836;4.348;2022-07-23T09:05:14;13.33;;;9.20;;
21581;SDS011;10952;50.836;4.348;2022-07-23T09:13:27;16.13;;;9.70;;
21581;SDS011;10952;50.836;4.348;2022-07-23T09:16:03;14.80;;;8.90;;
21581;SDS011;10952;50.836;4.348;2022-07-23T09:18:36;12.67;;;9.40;;
21581;SDS011;10952;50.836;4.348;2022-07-23T09:23:40;16.97;;;10.10;;
21581;SDS011;10952;50.836;4.348;2022-07-23T09:29:14;15.85;;;9.65;;
21581;SDS011;10952;50.836;4.348;2022-07-23T09:31:51;14.20;;;9.65;;
21581;SDS011;10952;50.836;4.348;2022-07-23T09:36:57;14.52;;;9.70;;
21581;SDS011;10952;50.836;4.348;2022-07-23T09:39:33;14.13;;;8.07;;
21581;SDS011;10952;50.836;4.348;2022-07-23T09:42:12;14.95;;;8.75;;
21581;SDS011;10952;50.836;4.348;2022-07-23T09:44:43;16.95;;;9.25;;
21581;SDS011;10952;50.836;4.348;2022-07-23T09:47:09;16.45;;;9.02;;
21581;SDS011;10952;50.836;4.348;2022-07-23T09:49:35;22.48;;;10.52;;
21581;SDS011;10952;50.836;4.348;2022-07-23T09:52:01;17.98;;;8.82;;
21581;SDS011;10952;50.836;4.348;2022-07-23T09:54:29;16.25;;;9.20;;
21581;SDS011;10952;50.836;4.348;2022-07-23T09:57:09;15.55;;;8.55;;
21581;SDS011;10952;50.836;4.348;2022-07-23T09:59:40;12.93;;;8.30;;
21581;SDS011;10952;50.836;4.348;2022-07-23T10:02:08;13.95;;;8.45;;
21581;SDS011;10952;50.836;4.348;2022-07-23T10:04:35;11.35;;;8.75;;
21581;SDS011;10952;50.836;4.348;2022-07-23T10:07:02;15.30;;;9.60;;
21581;SDS011;10952;50.836;4.348;2022-07-23T10:09:35;12.18;;;8.18;;
21581;SDS011;10952;50.836;4.348;2022-07-23T10:12:05;11.85;;;7.43;;
21581;SDS011;10952;50.836;4.348;2022-07-23T10:14:35;13.82;;;8.00;;
21581;SDS011;10952;50.836;4.348;2022-07-23T10:17:02;11.32;;;7.82;;
21581;SDS011;10952;50.836;4.348;2022-07-23T10:19:28;14.98;;;8.23;;
21581;SDS011;10952;50.836;4.348;2022-07-23T10:21:56;13.30;;;8.20;;
21581;SDS011;10952;50.836;4.348;2022-07-23T10:39:07;9.90;;;4.90;;
21581;SDS011;10952;50.836;4.348;2022-07-23T10:41:39;10.05;;;5.78;;
21581;SDS011;10952;50.836;4.348;2022-07-23T10:44:07;11.18;;;6.43;;
21581;SDS011;10952;50.836;4.348;2022-07-23T10:49:30;11.38;;;7.55;;
21581;SDS011;10952;50.836;4.348;2022-07-23T10:54:56;11.60;;;6.85;;
21581;SDS011;10952;50.836;4.348;2022-07-23T10:57:48;13.07;;;6.55;;
21581;SDS011;10952;50.836;4.348;2022-07-23T11:00:17;10.57;;;7.28;;
21581;SDS011;10952;50.836;4.348;2022-07-23T11:02:47;8.90;;;6.97;;
21581;SDS011;10952;50.836;4.348;2022-07-23T11:05:21;9.82;;;7.18;;
21581;SDS011;10952;50.836;4.348;2022-07-23T11:18:52;11.48;;;6.53;;
21581;SDS011;10952;50.836;4.348;2022-07-23T11:32:19;13.82;;;8.88;;
21581;SDS011;10952;50.836;4.348;2022-07-23T11:34:51;10.35;;;7.97;;
21581;SDS011;10952;50.836;4.348;2022-07-23T11:37:37;9.77;;;7.18;;
21581;SDS011;10952;50.836;4.348;2022-07-23T11:40:08;11.05;;;6.90;;
21581;SDS011;10952;50.836;4.348;2022-07-23T11:42:37;13.85;;;7.10;;
21581;SDS011;10952;50.836;4.348;2022-07-23T11:45:20;10.32;;;6.57;;
21581;SDS011;10952;50.836;4.348;2022-07-23T11:47:46;9.23;;;6.63;;
21581;SDS011;10952;50.836;4.348;2022-07-23T11:50:12;12.38;;;6.65;;
21581;SDS011;10952;50.836;4.348;2022-07-23T11:52:38;11.50;;;7.63;;
21581;SDS011;10952;50.836;4.348;2022-07-23T11:55:07;8.45;;;5.88;;
21581;SDS011;10952;50.836;4.348;2022-07-23T11:57:36;9.15;;;6.15;;
21581;SDS011;10952;50.836;4.348;2022-07-23T12:00:06;9.82;;;6.25;;
21581;SDS011;10952;50.836;4.348;2022-07-23T12:02:36;10.88;;;6.95;;
21581;SDS011;10952;50.836;4.348;2022-07-23T12:05:04;14.32;;;7.15;;
21581;SDS011;10952;50.836;4.348;2022-07-23T12:10:14;11.35;;;7.55;;
21581;SDS011;10952;50.836;4.348;2022-07-23T12:15:14;12.00;;;7.50;;
21581;SDS011;10952;50.836;4.348;2022-07-23T12:17:42;11.80;;;7.32;;
21581;SDS011;10952;50.836;4.348;2022-07-23T12:20:12;8.90;;;6.10;;
21581;SDS011;10952;50.836;4.348;2022-07-23T12:22:43;11.35;;;7.40;;
21581;SDS011;10952;50.836;4.348;2022-07-23T12:25:11;13.40;;;7.47;;
21581;SDS011;10952;50.836;4.348;2022-07-23T12:27:42;11.77;;;6.63;;
21581;SDS011;10952;50.836;4.348;2022-07-23T12:30:18;18.48;;;7.57;;
21581;SDS011;10952;50.836;4.348;2022-07-23T12:32:50;12.32;;;8.57;;
21581;SDS011;10952;50.836;4.348;2022-07-23T12:35:20;13.50;;;7.93;;
21581;SDS011;10952;50.836;4.348;2022-07-23T12:37:48;11.05;;;5.53;;
21581;SDS011;10952;50.836;4.348;2022-07-23T12:40:21;11.88;;;6.55;;
21581;SDS011;10952;50.836;4.348;2022-07-23T12:43:03;12.55;;;6.97;;
21581;SDS011;10952;50.836;4.348;2022-07-23T12:45:44;11.48;;;6.95;;
21581;SDS011;10952;50.836;4.348;2022-07-23T12:48:15;11.32;;;7.25;;
21581;SDS011;10952;50.836;4.348;2022-07-23T12:50:51;10.52;;;7.30;;
21581;SDS011;10952;50.836;4.348;2022-07-23T12:53:31;9.93;;;6.10;;
21581;SDS011;10952;50.836;4.348;2022-07-23T12:56:04;8.60;;;6.20;;
21581;SDS011;10952;50.836;4.348;2022-07-23T12:58:51;10.45;;;6.45;;
21581;SDS011;10952;50.836;4.348;2022-07-23T13:01:23;11.15;;;5.63;;
21581;SDS011;10952;50.836;4.348;2022-07-23T13:03:55;10.45;;;5.28;;
21581;SDS011;10952;50.836;4.348;2022-07-23T13:06:31;11.32;;;6.18;;
21581;SDS011;10952;50.836;4.348;2022-07-23T13:08:58;9.38;;;6.22;;
21581;SDS011;10952;50.836;4.348;2022-07-23T13:11:24;7.65;;;5.63;;
21581;SDS011;10952;50.836;4.348;2022-07-23T13:13:50;12.82;;;8.27;;
21581;SDS011;10952;50.836;4.348;2022-07-23T13:16:15;8.80;;;5.32;;
21581;SDS011;10952;50.836;4.348;2022-07-23T13:18:41;9.68;;;5.35;;
21581;SDS011;10952;50.836;4.348;2022-07-23T13:21:07;8.10;;;5.32;;
21581;SDS011;10952;50.836;4.348;2022-07-23T13:23:33;10.25;;;5.20;;
21581;SDS011;10952;50.836;4.348;2022-07-23T13:25:59;8.32;;;4.90;;
21581;SDS011;10952;50.836;4.348;2022-07-23T13:28:25;8.20;;;4.65;;
21581;SDS011;10952;50.836;4.348;2022-07-23T13:30:51;7.75;;;4.80;;
21581;SDS011;10952;50.836;4.348;2022-07-23T13:33:18;9.25;;;4.70;;
21581;SDS011;10952;50.836;4.348;2022-07-23T13:35:45;9.10;;;5.03;;
21581;SDS011;10952;50.836;4.348;2022-07-23T13:38:11;9.38;;;4.65;;
21581;SDS011;10952;50.836;4.348;2022-07-23T13:40:38;8.18;;;4.88;;
21581;SDS011;10952;50.836;4.348;2022-07-23T13:43:08;6.90;;;5.05;;
21581;SDS011;10952;50.836;4.348;2022-07-23T13:45:36;7.18;;;4.53;;
21581;SDS011;10952;50.836;4.348;2022-07-23T13:48:03;7.03;;;4.38;;
21581;SDS011;10952;50.836;4.348;2022-07-23T13:50:30;7.32;;;4.60;;
21581;SDS011;10952;50.836;4.348;2022-07-23T13:52:55;18.60;;;6.57;;
21581;SDS011;10952;50.836;4.348;2022-07-23T13:55:22;6.50;;;4.78;;
21581;SDS011;10952;50.836;4.348;2022-07-23T13:57:47;8.25;;;4.75;;
21581;SDS011;10952;50.836;4.348;2022-07-23T14:00:14;5.72;;;4.15;;
21581;SDS011;10952;50.836;4.348;2022-07-23T14:02:40;7.85;;;4.70;;
21581;SDS011;10952;50.836;4.348;2022-07-23T14:05:06;8.82;;;4.70;;
21581;SDS011;10952;50.836;4.348;2022-07-23T14:07:35;7.82;;;4.07;;
21581;SDS011;10952;50.836;4.348;2022-07-23T14:10:02;9.05;;;4.70;;
21581;SDS011;10952;50.836;4.348;2022-07-23T14:12:29;8.82;;;4.53;;
21581;SDS011;10952;50.836;4.348;2022-07-23T14:14:55;7.45;;;4.20;;
21581;SDS011;10952;50.836;4.348;2022-07-23T14:17:21;7.13;;;4.50;;
21581;SDS011;10952;50.836;4.348;2022-07-23T14:19:47;7.22;;;4.38;;
21581;SDS011;10952;50.836;4.348;2022-07-23T14:22:12;10.52;;;4.90;;
21581;SDS011;10952;50.836;4.348;2022-07-23T14:24:38;9.13;;;4.00;;
21581;SDS011;10952;50.836;4.348;2022-07-23T14:27:04;10.23;;;4.78;;
21581;SDS011;10952;50.836;4.348;2022-07-23T14:29:30;11.90;;;4.97;;
21581;SDS011;10952;50.836;4.348;2022-07-23T14:31:57;9.20;;;5.03;;
21581;SDS011;10952;50.836;4.348;2022-07-23T14:34:24;9.45;;;5.15;;
21581;SDS011;10952;50.836;4.348;2022-07-23T14:36:51;8.98;;;4.65;;
21581;SDS011;10952;50.836;4.348;2022-07-23T14:39:17;11.82;;;5.00;;
21581;SDS011;10952;50.836;4.348;2022-07-23T14:41:43;7.53;;;4.38;;
21581;SDS011;10952;50.836;4.348;2022-07-23T14:44:08;6.80;;;4.68;;
21581;SDS011;10952;50.836;4.348;2022-07-23T14:46:34;11.13;;;5.20;;
21581;SDS011;10952;50.836;4.348;2022-07-23T14:49:00;6.38;;;4.85;;
21581;SDS011;10952;50.836;4.348;2022-07-23T14:51:26;9.75;;;4.78;;
21581;SDS011;10952;50.836;4.348;2022-07-23T14:53:52;9.45;;;5.40;;
21581;SDS011;10952;50.836;4.348;2022-07-23T14:56:18;8.02;;;4.57;;
21581;SDS011;10952;50.836;4.348;2022-07-23T14:58:43;9.02;;;5.22;;
21581;SDS011;10952;50.836;4.348;2022-07-23T15:01:09;11.45;;;4.78;;
21581;SDS011;10952;50.836;4.348;2022-07-23T15:03:35;8.15;;;5.15;;
21581;SDS011;10952;50.836;4.348;2022-07-23T15:06:00;8.93;;;4.70;;
21581;SDS011;10952;50.836;4.348;2022-07-23T15:08:26;8.98;;;4.70;;
21581;SDS011;10952;50.836;4.348;2022-07-23T15:10:52;8.07;;;5.30;;
21581;SDS011;10952;50.836;4.348;2022-07-23T15:13:18;6.80;;;5.15;;
21581;SDS011;10952;50.836;4.348;2022-07-23T15:15:44;7.88;;;4.78;;
21581;SDS011;10952;50.836;4.348;2022-07-23T15:18:10;7.43;;;4.55;;
21581;SDS011;10952;50.836;4.348;2022-07-23T15:20:36;8.15;;;5.45;;
21581;SDS011;10952;50.836;4.348;2022-07-23T15:23:03;11.13;;;5.05;;
21581;SDS011;10952;50.836;4.348;2022-07-23T15:25:29;7.22;;;4.63;;
21581;SDS011;10952;50.836;4.348;2022-07-23T15:27:56;9.27;;;4.57;;
21581;SDS011;10952;50.836;4.348;2022-07-23T15:30:24;7.60;;;4.82;;
21581;SDS011;10952;50.836;4.348;2022-07-23T15:32:50;9.02;;;5.30;;
21581;SDS011;10952;50.836;4.348;2022-07-23T15:35:16;7.88;;;4.97;;
21581;SDS011;10952;50.836;4.348;2022-07-23T15:37:42;8.05;;;4.97;;
21581;SDS011;10952;50.836;4.348;2022-07-23T15:40:08;7.45;;;4.93;;
21581;SDS011;10952;50.836;4.348;2022-07-23T15:42:35;15.80;;;5.97;;
21581;SDS011;10952;50.836;4.348;2022-07-23T15:45:01;8.85;;;4.80;;
21581;SDS011;10952;50.836;4.348;2022-07-23T15:47:26;8.95;;;5.25;;
21581;SDS011;10952;50.836;4.348;2022-07-23T15:49:52;7.60;;;4.90;;
21581;SDS011;10952;50.836;4.348;2022-07-23T15:52:18;10.32;;;6.90;;
21581;SDS011;10952;50.836;4.348;2022-07-23T15:54:43;8.55;;;5.75;;